sensor_id;sensor_type;location;lat;lon;timestamp;P1;durP1;ratioP1;P2;durP2;ratioP2
179;SDS011;78;48.788;9.010;2023-01-24T00:01:38;55.50;;;23.17;;
179;SDS011;78;48.788;9.010;2023-01-24T00:04:04;53.63;;;22.00;;
179;SDS011;78;48.788;9.010;2023-01-24T00:06:30;54.40;;;21.63;;
179;SDS011;78;48.788;9.010;2023-01-24T00:08:56;52.60;;;22.10;;
179;SDS011;78;48.788;9.010;2023-01-24T00:11:22;56.33;;;21.90;;
179;SDS011;78;48.788;9.010;2023-01-24T00:13:48;54.87;;;21.20;;
179;SDS011;78;48.788;9.010;2023-01-24T00:16:18;48.00;;;20.00;;
179;SDS011;78;48.788;9.010;2023-01-24T00:18:45;54.10;;;22.40;;
179;SDS011;78;48.788;9.010;2023-01-24T00:21:12;54.10;;;22.57;;
179;SDS011;78;48.788;9.010;2023-01-24T00:23:41;51.87;;;21.10;;
179;SDS011;78;48.788;9.010;2023-01-24T00:26:08;54.10;;;22.07;;
179;SDS011;78;48.788;9.010;2023-01-24T00:28:34;49.80;;;20.10;;
179;SDS011;78;48.788;9.010;2023-01-24T00:31:00;54.10;;;21.57;;
179;SDS011;78;48.788;9.010;2023-01-24T00:33:26;51.47;;;20.73;;
179;SDS011;78;48.788;9.010;2023-01-24T00:35:52;54.70;;;21.10;;
179;SDS011;78;48.788;9.010;2023-01-24T00:38:19;57.30;;;23.20;;
179;SDS011;78;48.788;9.010;2023-01-24T00:40:45;53.60;;;21.60;;
179;SDS011;78;48.788;9.010;2023-01-24T00:43:11;52.37;;;21.13;;
179;SDS011;78;48.788;9.010;2023-01-24T00:45:37;55.13;;;22.57;;
179;SDS011;78;48.788;9.010;2023-01-24T00:48:04;54.53;;;22.33;;
179;SDS011;78;48.788;9.010;2023-01-24T00:50:30;52.10;;;20.90;;
179;SDS011;78;48.788;9.010;2023-01-24T00:52:56;53.30;;;20.30;;
179;SDS011;78;48.788;9.010;2023-01-24T00:55:24;52.27;;;21.53;;
179;SDS011;78;48.788;9.010;2023-01-24T00:57:50;54.90;;;21.70;;
179;SDS011;78;48.788;9.010;2023-01-24T01:00:16;49.63;;;20.57;;
179;SDS011;78;48.788;9.010;2023-01-24T01:02:42;53.77;;;21.07;;
179;SDS011;78;48.788;9.010;2023-01-24T01:05:08;58.57;;;23.03;;
179;SDS011;78;48.788;9.010;2023-01-24T01:07:34;53.80;;;22.20;;
179;SDS011;78;48.788;9.010;2023-01-24T01:10:00;57.20;;;23.47;;
179;SDS011;78;48.788;9.010;2023-01-24T01:12:26;55.80;;;21.63;;
179;SDS011;78;48.788;9.010;2023-01-24T01:14:52;50.50;;;21.00;;
179;SDS011;78;48.788;9.010;2023-01-24T01:17:18;49.53;;;20.23;;
179;SDS011;78;48.788;9.010;2023-01-24T01:19:44;51.57;;;21.63;;
179;SDS011;78;48.788;9.010;2023-01-24T01:22:10;59.40;;;23.67;;
179;SDS011;78;48.788;9.010;2023-01-24T01:24:36;58.37;;;23.30;;
179;SDS011;78;48.788;9.010;2023-01-24T01:27:02;57.73;;;23.70;;
179;SDS011;78;48.788;9.010;2023-01-24T01:29:29;53.40;;;21.90;;
179;SDS011;78;48.788;9.010;2023-01-24T01:31:54;54.20;;;21.20;;
179;SDS011;78;48.788;9.010;2023-01-24T01:34:20;63.27;;;24.60;;
179;SDS011;78;48.788;9.010;2023-01-24T01:36:46;54.80;;;23.20;;
179;SDS011;78;48.788;9.010;2023-01-24T01:39:12;57.03;;;22.20;;
179;SDS011;78;48.788;9.010;2023-01-24T01:41:38;55.00;;;22.80;;
179;SDS011;78;48.788;9.010;2023-01-24T01:44:21;58.83;;;24.53;;
179;SDS011;78;48.788;9.010;2023-01-24T01:49:56;56.83;;;24.30;;
179;SDS011;78;48.788;9.010;2023-01-24T01:52:24;57.90;;;22.73;;
179;SDS011;78;48.788;9.010;2023-01-24T01:54:52;56.87;;;24.10;;
179;SDS011;78;48.788;9.010;2023-01-24T01:57:23;56.67;;;22.07;;
179;SDS011;78;48.788;9.010;2023-01-24T01:59:54;58.50;;;23.67;;
179;SDS011;78;48.788;9.010;2023-01-24T02:02:21;58.93;;;24.33;;
179;SDS011;78;48.788;9.010;2023-01-24T02:04:49;59.33;;;24.13;;
179;SDS011;78;48.788;9.010;2023-01-24T02:07:28;60.00;;;23.30;;
179;SDS011;78;48.788;9.010;2023-01-24T02:09:55;67.60;;;26.10;;
179;SDS011;78;48.788;9.010;2023-01-24T02:12:22;60.37;;;23.40;;
179;SDS011;78;48.788;9.010;2023-01-24T02:14:53;58.17;;;22.97;;
179;SDS011;78;48.788;9.010;2023-01-24T02:17:39;60.13;;;23.43;;
179;SDS011;78;48.788;9.010;2023-01-24T02:27:44;63.13;;;25.43;;
179;SDS011;78;48.788;9.010;2023-01-24T02:30:11;59.60;;;23.73;;
179;SDS011;78;48.788;9.010;2023-01-24T02:32:37;61.73;;;25.13;;
179;SDS011;78;48.788;9.010;2023-01-24T02:35:04;59.73;;;24.60;;
179;SDS011;78;48.788;9.010;2023-01-24T02:37:31;62.60;;;23.80;;
179;SDS011;78;48.788;9.010;2023-01-24T02:39:58;63.97;;;25.20;;
179;SDS011;78;48.788;9.010;2023-01-24T02:42:31;61.47;;;23.90;;
179;SDS011;78;48.788;9.010;2023-01-24T02:45:02;57.30;;;23.50;;
179;SDS011;78;48.788;9.010;2023-01-24T02:47:31;63.60;;;26.20;;
179;SDS011;78;48.788;9.010;2023-01-24T02:49:59;58.47;;;23.40;;
179;SDS011;78;48.788;9.010;2023-01-24T02:52:26;62.07;;;24.43;;
179;SDS011;78;48.788;9.010;2023-01-24T02:55:10;65.53;;;24.67;;
179;SDS011;78;48.788;9.010;2023-01-24T02:57:37;61.70;;;23.53;;
179;SDS011;78;48.788;9.010;2023-01-24T03:00:21;57.10;;;22.40;;
179;SDS011;78;48.788;9.010;2023-01-24T03:02:48;63.30;;;23.67;;
179;SDS011;78;48.788;9.010;2023-01-24T03:05:14;55.30;;;22.47;;
179;SDS011;78;48.788;9.010;2023-01-24T03:07:40;57.83;;;24.00;;
179;SDS011;78;48.788;9.010;2023-01-24T03:10:07;58.57;;;23.57;;
179;SDS011;78;48.788;9.010;2023-01-24T03:12:34;56.87;;;22.73;;
179;SDS011;78;48.788;9.010;2023-01-24T03:15:19;60.70;;;23.70;;
179;SDS011;78;48.788;9.010;2023-01-24T03:18:03;60.17;;;24.20;;
179;SDS011;78;48.788;9.010;2023-01-24T03:20:47;58.50;;;22.93;;
179;SDS011;78;48.788;9.010;2023-01-24T03:23:32;57.90;;;23.87;;
179;SDS011;78;48.788;9.010;2023-01-24T03:26:17;57.97;;;22.60;;
179;SDS011;78;48.788;9.010;2023-01-24T03:29:01;65.57;;;25.93;;
179;SDS011;78;48.788;9.010;2023-01-24T03:31:46;60.27;;;23.60;;
179;SDS011;78;48.788;9.010;2023-01-24T03:34:30;57.70;;;22.80;;
179;SDS011;78;48.788;9.010;2023-01-24T03:37:10;57.13;;;23.27;;
179;SDS011;78;48.788;9.010;2023-01-24T03:39:36;53.40;;;21.83;;
179;SDS011;78;48.788;9.010;2023-01-24T03:42:21;55.93;;;21.60;;
179;SDS011;78;48.788;9.010;2023-01-24T03:44:47;56.67;;;23.07;;
179;SDS011;78;48.788;9.010;2023-01-24T03:47:13;57.30;;;21.50;;
179;SDS011;78;48.788;9.010;2023-01-24T03:49:39;56.87;;;22.73;;
179;SDS011;78;48.788;9.010;2023-01-24T03:52:23;58.33;;;22.53;;
179;SDS011;78;48.788;9.010;2023-01-24T03:54:49;55.17;;;21.77;;
179;SDS011;78;48.788;9.010;2023-01-24T03:57:15;57.43;;;23.00;;
179;SDS011;78;48.788;9.010;2023-01-24T03:59:41;60.20;;;23.77;;
179;SDS011;78;48.788;9.010;2023-01-24T04:02:07;55.00;;;22.00;;
179;SDS011;78;48.788;9.010;2023-01-24T04:04:33;56.83;;;22.60;;
179;SDS011;78;48.788;9.010;2023-01-24T04:07:18;64.00;;;25.27;;
179;SDS011;78;48.788;9.010;2023-01-24T04:09:44;57.73;;;22.13;;
179;SDS011;78;48.788;9.010;2023-01-24T04:12:10;56.70;;;22.50;;
179;SDS011;78;48.788;9.010;2023-01-24T04:14:35;56.70;;;22.37;;
179;SDS011;78;48.788;9.010;2023-01-24T04:17:01;57.10;;;22.87;;
179;SDS011;78;48.788;9.010;2023-01-24T04:19:28;54.93;;;22.90;;
179;SDS011;78;48.788;9.010;2023-01-24T04:21:54;57.13;;;22.63;;
179;SDS011;78;48.788;9.010;2023-01-24T04:24:22;56.80;;;22.90;;
179;SDS011;78;48.788;9.010;2023-01-24T04:26:48;60.10;;;21.00;;
179;SDS011;78;48.788;9.010;2023-01-24T04:29:14;57.97;;;22.50;;
179;SDS011;78;48.788;9.010;2023-01-24T04:31:40;55.37;;;22.53;;
179;SDS011;78;48.788;9.010;2023-01-24T04:34:06;59.00;;;22.70;;
179;SDS011;78;48.788;9.010;2023-01-24T04:36:32;58.63;;;23.67;;
179;SDS011;78;48.788;9.010;2023-01-24T04:38:58;54.47;;;21.47;;
179;SDS011;78;48.788;9.010;2023-01-24T04:41:24;65.13;;;23.80;;
179;SDS011;78;48.788;9.010;2023-01-24T04:43:50;60.37;;;23.67;;
179;SDS011;78;48.788;9.010;2023-01-24T04:46:16;54.43;;;21.30;;
179;SDS011;78;48.788;9.010;2023-01-24T04:48:42;59.97;;;23.00;;
179;SDS011;78;48.788;9.010;2023-01-24T04:51:08;58.13;;;23.07;;
179;SDS011;78;48.788;9.010;2023-01-24T04:53:40;62.33;;;22.90;;
179;SDS011;78;48.788;9.010;2023-01-24T04:56:06;64.77;;;24.60;;
179;SDS011;78;48.788;9.010;2023-01-24T04:58:32;66.07;;;23.90;;
179;SDS011;78;48.788;9.010;2023-01-24T05:00:59;63.97;;;23.50;;
179;SDS011;78;48.788;9.010;2023-01-24T05:03:25;57.67;;;22.60;;
179;SDS011;78;48.788;9.010;2023-01-24T05:05:51;65.50;;;23.83;;
179;SDS011;78;48.788;9.010;2023-01-24T05:08:17;58.80;;;24.33;;
179;SDS011;78;48.788;9.010;2023-01-24T05:10:44;60.27;;;23.20;;
179;SDS011;78;48.788;9.010;2023-01-24T05:13:11;65.70;;;25.27;;
179;SDS011;78;48.788;9.010;2023-01-24T05:15:37;57.53;;;22.53;;
179;SDS011;78;48.788;9.010;2023-01-24T05:18:03;58.00;;;23.27;;
179;SDS011;78;48.788;9.010;2023-01-24T05:20:29;65.10;;;24.20;;
179;SDS011;78;48.788;9.010;2023-01-24T05:22:56;62.73;;;23.40;;
179;SDS011;78;48.788;9.010;2023-01-24T05:25:22;67.80;;;25.60;;
179;SDS011;78;48.788;9.010;2023-01-24T05:27:48;71.47;;;27.13;;
179;SDS011;78;48.788;9.010;2023-01-24T05:30:14;61.10;;;24.53;;
179;SDS011;78;48.788;9.010;2023-01-24T05:32:40;60.40;;;22.20;;
179;SDS011;78;48.788;9.010;2023-01-24T05:35:06;71.57;;;27.30;;
179;SDS011;78;48.788;9.010;2023-01-24T05:37:33;62.00;;;24.47;;
179;SDS011;78;48.788;9.010;2023-01-24T05:40:01;64.10;;;24.50;;
179;SDS011;78;48.788;9.010;2023-01-24T05:42:27;66.33;;;25.70;;
179;SDS011;78;48.788;9.010;2023-01-24T05:44:53;67.53;;;25.00;;
179;SDS011;78;48.788;9.010;2023-01-24T05:47:19;63.87;;;24.73;;
179;SDS011;78;48.788;9.010;2023-01-24T05:49:45;70.23;;;26.00;;
179;SDS011;78;48.788;9.010;2023-01-24T05:52:11;68.27;;;25.70;;
179;SDS011;78;48.788;9.010;2023-01-24T05:54:37;64.50;;;25.10;;
179;SDS011;78;48.788;9.010;2023-01-24T05:57:04;69.60;;;26.23;;
179;SDS011;78;48.788;9.010;2023-01-24T05:59:30;69.30;;;26.40;;
179;SDS011;78;48.788;9.010;2023-01-24T06:01:56;72.43;;;26.77;;
179;SDS011;78;48.788;9.010;2023-01-24T06:04:22;68.67;;;26.67;;
179;SDS011;78;48.788;9.010;2023-01-24T06:06:48;67.37;;;26.37;;
179;SDS011;78;48.788;9.010;2023-01-24T06:09:15;72.47;;;27.00;;
179;SDS011;78;48.788;9.010;2023-01-24T06:11:41;70.70;;;25.80;;
179;SDS011;78;48.788;9.010;2023-01-24T06:14:07;77.67;;;29.40;;
179;SDS011;78;48.788;9.010;2023-01-24T06:16:33;70.27;;;25.53;;
179;SDS011;78;48.788;9.010;2023-01-24T06:18:59;64.70;;;25.37;;
179;SDS011;78;48.788;9.010;2023-01-24T06:23:54;65.70;;;26.53;;
179;SDS011;78;48.788;9.010;2023-01-24T06:26:20;67.80;;;26.17;;
179;SDS011;78;48.788;9.010;2023-01-24T06:28:46;67.43;;;26.17;;
179;SDS011;78;48.788;9.010;2023-01-24T06:31:34;74.83;;;27.20;;
179;SDS011;78;48.788;9.010;2023-01-24T06:39:00;64.47;;;26.10;;
179;SDS011;78;48.788;9.010;2023-01-24T06:41:26;67.33;;;24.33;;
179;SDS011;78;48.788;9.010;2023-01-24T06:43:52;67.27;;;25.80;;
179;SDS011;78;48.788;9.010;2023-01-24T06:46:18;68.50;;;28.00;;
179;SDS011;78;48.788;9.010;2023-01-24T06:48:44;74.10;;;27.67;;
179;SDS011;78;48.788;9.010;2023-01-24T06:51:13;72.30;;;28.10;;
179;SDS011;78;48.788;9.010;2023-01-24T06:53:40;68.63;;;26.80;;
179;SDS011;78;48.788;9.010;2023-01-24T06:56:06;70.73;;;24.87;;
179;SDS011;78;48.788;9.010;2023-01-24T06:58:32;72.73;;;28.00;;
179;SDS011;78;48.788;9.010;2023-01-24T07:00:58;81.70;;;26.87;;
179;SDS011;78;48.788;9.010;2023-01-24T07:03:24;65.77;;;25.53;;
179;SDS011;78;48.788;9.010;2023-01-24T07:05:50;63.77;;;25.00;;
179;SDS011;78;48.788;9.010;2023-01-24T07:08:16;65.03;;;24.90;;
179;SDS011;78;48.788;9.010;2023-01-24T07:10:44;64.87;;;26.07;;
179;SDS011;78;48.788;9.010;2023-01-24T07:13:10;69.07;;;26.50;;
179;SDS011;78;48.788;9.010;2023-01-24T07:15:36;72.33;;;26.20;;
179;SDS011;78;48.788;9.010;2023-01-24T07:18:06;66.80;;;25.93;;
179;SDS011;78;48.788;9.010;2023-01-24T07:20:33;65.20;;;25.30;;
179;SDS011;78;48.788;9.010;2023-01-24T07:22:59;69.20;;;27.23;;
179;SDS011;78;48.788;9.010;2023-01-24T07:25:26;61.60;;;24.57;;
179;SDS011;78;48.788;9.010;2023-01-24T07:27:52;61.90;;;24.70;;
179;SDS011;78;48.788;9.010;2023-01-24T07:30:18;67.73;;;25.03;;
179;SDS011;78;48.788;9.010;2023-01-24T07:32:44;69.23;;;26.77;;
179;SDS011;78;48.788;9.010;2023-01-24T07:35:10;64.33;;;25.23;;
179;SDS011;78;48.788;9.010;2023-01-24T07:37:37;66.97;;;25.57;;
179;SDS011;78;48.788;9.010;2023-01-24T07:40:04;69.10;;;25.07;;
179;SDS011;78;48.788;9.010;2023-01-24T07:42:30;63.03;;;22.97;;
179;SDS011;78;48.788;9.010;2023-01-24T07:44:56;62.30;;;23.97;;
179;SDS011;78;48.788;9.010;2023-01-24T08:05:44;69.17;;;26.27;;
179;SDS011;78;48.788;9.010;2023-01-24T08:08:10;64.07;;;23.77;;
179;SDS011;78;48.788;9.010;2023-01-24T08:10:36;65.50;;;24.00;;
179;SDS011;78;48.788;9.010;2023-01-24T08:13:02;64.70;;;24.07;;
179;SDS011;78;48.788;9.010;2023-01-24T08:15:28;73.60;;;25.60;;
179;SDS011;78;48.788;9.010;2023-01-24T08:17:54;69.97;;;26.40;;
179;SDS011;78;48.788;9.010;2023-01-24T08:20:20;75.70;;;25.83;;
179;SDS011;78;48.788;9.010;2023-01-24T08:22:46;68.83;;;24.23;;
179;SDS011;78;48.788;9.010;2023-01-24T08:25:12;67.27;;;24.63;;
179;SDS011;78;48.788;9.010;2023-01-24T08:27:41;63.83;;;23.93;;
179;SDS011;78;48.788;9.010;2023-01-24T08:30:08;64.60;;;24.63;;
179;SDS011;78;48.788;9.010;2023-01-24T08:32:36;70.13;;;25.33;;
179;SDS011;78;48.788;9.010;2023-01-24T08:35:02;67.40;;;25.90;;
179;SDS011;78;48.788;9.010;2023-01-24T08:37:28;67.53;;;24.10;;
179;SDS011;78;48.788;9.010;2023-01-24T08:39:54;60.30;;;23.53;;
179;SDS011;78;48.788;9.010;2023-01-24T08:42:21;65.63;;;23.83;;
179;SDS011;78;48.788;9.010;2023-01-24T08:44:47;73.77;;;26.87;;
179;SDS011;78;48.788;9.010;2023-01-24T08:47:13;64.60;;;24.90;;
179;SDS011;78;48.788;9.010;2023-01-24T08:49:39;62.90;;;24.03;;
179;SDS011;78;48.788;9.010;2023-01-24T08:52:05;61.17;;;23.97;;
179;SDS011;78;48.788;9.010;2023-01-24T08:54:31;68.43;;;25.60;;
179;SDS011;78;48.788;9.010;2023-01-24T08:56:58;64.80;;;24.80;;
179;SDS011;78;48.788;9.010;2023-01-24T08:59:24;66.63;;;26.30;;
179;SDS011;78;48.788;9.010;2023-01-24T09:01:50;64.27;;;24.53;;
179;SDS011;78;48.788;9.010;2023-01-24T09:04:16;66.33;;;24.57;;
179;SDS011;78;48.788;9.010;2023-01-24T09:06:42;61.40;;;24.10;;
179;SDS011;78;48.788;9.010;2023-01-24T09:09:08;60.37;;;23.27;;
179;SDS011;78;48.788;9.010;2023-01-24T09:11:34;69.63;;;26.20;;
179;SDS011;78;48.788;9.010;2023-01-24T09:14:00;65.30;;;23.67;;
179;SDS011;78;48.788;9.010;2023-01-24T09:16:26;60.60;;;24.57;;
179;SDS011;78;48.788;9.010;2023-01-24T09:18:52;54.40;;;21.87;;
179;SDS011;78;48.788;9.010;2023-01-24T09:21:19;59.50;;;22.23;;
179;SDS011;78;48.788;9.010;2023-01-24T09:23:45;58.50;;;22.20;;
179;SDS011;78;48.788;9.010;2023-01-24T09:26:11;62.63;;;23.30;;
179;SDS011;78;48.788;9.010;2023-01-24T09:28:37;55.37;;;21.33;;
179;SDS011;78;48.788;9.010;2023-01-24T09:31:03;58.80;;;22.93;;
179;SDS011;78;48.788;9.010;2023-01-24T09:33:32;61.93;;;24.17;;
179;SDS011;78;48.788;9.010;2023-01-24T09:35:59;61.53;;;24.10;;
179;SDS011;78;48.788;9.010;2023-01-24T09:38:26;61.70;;;23.10;;
179;SDS011;78;48.788;9.010;2023-01-24T09:40:54;60.30;;;23.23;;
179;SDS011;78;48.788;9.010;2023-01-24T09:45:52;56.20;;;21.93;;
179;SDS011;78;48.788;9.010;2023-01-24T09:48:19;58.83;;;21.97;;
179;SDS011;78;48.788;9.010;2023-01-24T09:50:46;57.47;;;23.10;;
179;SDS011;78;48.788;9.010;2023-01-24T09:53:16;57.00;;;22.53;;
179;SDS011;78;48.788;9.010;2023-01-24T09:55:43;62.50;;;22.27;;
179;SDS011;78;48.788;9.010;2023-01-24T10:00:55;53.50;;;21.10;;
179;SDS011;78;48.788;9.010;2023-01-24T10:03:22;61.30;;;22.67;;
179;SDS011;78;48.788;9.010;2023-01-24T10:05:49;49.30;;;19.90;;
179;SDS011;78;48.788;9.010;2023-01-24T10:16:05;60.50;;;22.50;;
179;SDS011;78;48.788;9.010;2023-01-24T10:18:38;60.67;;;22.40;;
179;SDS011;78;48.788;9.010;2023-01-24T10:23:46;58.27;;;23.10;;
179;SDS011;78;48.788;9.010;2023-01-24T10:26:18;59.13;;;23.00;;
179;SDS011;78;48.788;9.010;2023-01-24T10:28:51;54.50;;;22.77;;
179;SDS011;78;48.788;9.010;2023-01-24T10:31:20;54.70;;;20.90;;
179;SDS011;78;48.788;9.010;2023-01-24T10:33:49;55.63;;;21.20;;
179;SDS011;78;48.788;9.010;2023-01-24T10:36:37;55.90;;;21.67;;
179;SDS011;78;48.788;9.010;2023-01-24T10:39:08;52.50;;;19.90;;
179;SDS011;78;48.788;9.010;2023-01-24T10:41:35;49.97;;;20.30;;
179;SDS011;78;48.788;9.010;2023-01-24T10:47:09;57.17;;;21.93;;
179;SDS011;78;48.788;9.010;2023-01-24T10:49:40;61.73;;;22.57;;
179;SDS011;78;48.788;9.010;2023-01-24T10:52:14;52.60;;;20.87;;
179;SDS011;78;48.788;9.010;2023-01-24T10:57:32;51.10;;;20.20;;
179;SDS011;78;48.788;9.010;2023-01-24T11:00:16;52.53;;;20.90;;
179;SDS011;78;48.788;9.010;2023-01-24T11:02:45;47.73;;;18.07;;
179;SDS011;78;48.788;9.010;2023-01-24T11:05:12;47.07;;;17.70;;
179;SDS011;78;48.788;9.010;2023-01-24T11:07:44;52.60;;;19.97;;
179;SDS011;78;48.788;9.010;2023-01-24T11:12:57;49.30;;;18.43;;
179;SDS011;78;48.788;9.010;2023-01-24T11:15:28;49.23;;;19.30;;
179;SDS011;78;48.788;9.010;2023-01-24T11:17:56;46.20;;;18.30;;
179;SDS011;78;48.788;9.010;2023-01-24T11:20:25;46.37;;;17.97;;
179;SDS011;78;48.788;9.010;2023-01-24T11:22:55;50.87;;;19.60;;
179;SDS011;78;48.788;9.010;2023-01-24T11:25:26;47.53;;;17.90;;
179;SDS011;78;48.788;9.010;2023-01-24T11:27:52;48.93;;;17.87;;
179;SDS011;78;48.788;9.010;2023-01-24T11:30:19;46.50;;;17.50;;
179;SDS011;78;48.788;9.010;2023-01-24T11:32:58;44.47;;;18.03;;
179;SDS011;78;48.788;9.010;2023-01-24T11:35:29;45.43;;;17.47;;
179;SDS011;78;48.788;9.010;2023-01-24T11:40:41;44.87;;;17.10;;
179;SDS011;78;48.788;9.010;2023-01-24T11:43:13;44.70;;;17.00;;
179;SDS011;78;48.788;9.010;2023-01-24T11:50:36;41.70;;;16.43;;
179;SDS011;78;48.788;9.010;2023-01-24T12:13:46;44.70;;;16.70;;
179;SDS011;78;48.788;9.010;2023-01-24T12:19:02;47.00;;;18.43;;
179;SDS011;78;48.788;9.010;2023-01-24T12:21:31;45.00;;;17.07;;
179;SDS011;78;48.788;9.010;2023-01-24T12:26:37;52.50;;;17.57;;
179;SDS011;78;48.788;9.010;2023-01-24T12:31:54;42.57;;;16.80;;
179;SDS011;78;48.788;9.010;2023-01-24T12:37:00;41.30;;;16.47;;
179;SDS011;78;48.788;9.010;2023-01-24T12:39:30;42.77;;;16.67;;
179;SDS011;78;48.788;9.010;2023-01-24T12:42:01;45.30;;;17.40;;
179;SDS011;78;48.788;9.010;2023-01-24T12:44:33;40.37;;;16.20;;
179;SDS011;78;48.788;9.010;2023-01-24T12:47:16;46.53;;;18.23;;
179;SDS011;78;48.788;9.010;2023-01-24T12:57:22;43.47;;;17.17;;
179;SDS011;78;48.788;9.010;2023-01-24T12:59:52;41.60;;;16.73;;
179;SDS011;78;48.788;9.010;2023-01-24T13:13:02;45.20;;;16.40;;
179;SDS011;78;48.788;9.010;2023-01-24T13:15:41;40.83;;;15.50;;
179;SDS011;78;48.788;9.010;2023-01-24T13:18:33;44.33;;;16.87;;
179;SDS011;78;48.788;9.010;2023-01-24T13:21:09;58.10;;;21.67;;
179;SDS011;78;48.788;9.010;2023-01-24T13:26:11;43.50;;;17.10;;
179;SDS011;78;48.788;9.010;2023-01-24T13:33:45;44.60;;;16.90;;
179;SDS011;78;48.788;9.010;2023-01-24T13:36:16;41.97;;;16.07;;
179;SDS011;78;48.788;9.010;2023-01-24T13:38:42;43.53;;;16.47;;
179;SDS011;78;48.788;9.010;2023-01-24T13:41:16;42.90;;;16.20;;
179;SDS011;78;48.788;9.010;2023-01-24T13:51:44;41.73;;;16.57;;
179;SDS011;78;48.788;9.010;2023-01-24T13:59:24;44.30;;;15.93;;
179;SDS011;78;48.788;9.010;2023-01-24T14:01:50;45.97;;;18.03;;
179;SDS011;78;48.788;9.010;2023-01-24T14:04:16;44.27;;;16.60;;
179;SDS011;78;48.788;9.010;2023-01-24T14:06:42;43.37;;;16.20;;
179;SDS011;78;48.788;9.010;2023-01-24T14:09:19;42.23;;;16.23;;
179;SDS011;78;48.788;9.010;2023-01-24T14:12:10;43.17;;;16.57;;
179;SDS011;78;48.788;9.010;2023-01-24T14:14:35;41.13;;;16.37;;
179;SDS011;78;48.788;9.010;2023-01-24T14:17:02;40.23;;;16.23;;
179;SDS011;78;48.788;9.010;2023-01-24T14:19:36;41.93;;;16.13;;
179;SDS011;78;48.788;9.010;2023-01-24T14:22:14;40.17;;;16.67;;
179;SDS011;78;48.788;9.010;2023-01-24T14:27:37;39.73;;;15.40;;
179;SDS011;78;48.788;9.010;2023-01-24T14:35:22;51.07;;;17.90;;
179;SDS011;78;48.788;9.010;2023-01-24T14:37:49;40.77;;;15.60;;
179;SDS011;78;48.788;9.010;2023-01-24T14:40:20;41.07;;;16.07;;
179;SDS011;78;48.788;9.010;2023-01-24T14:42:50;38.60;;;15.67;;
179;SDS011;78;48.788;9.010;2023-01-24T14:45:17;41.37;;;15.90;;
179;SDS011;78;48.788;9.010;2023-01-24T14:47:47;43.70;;;17.20;;
179;SDS011;78;48.788;9.010;2023-01-24T14:50:25;43.33;;;16.53;;
179;SDS011;78;48.788;9.010;2023-01-24T14:52:51;46.47;;;17.90;;
179;SDS011;78;48.788;9.010;2023-01-24T14:55:27;44.53;;;17.07;;
179;SDS011;78;48.788;9.010;2023-01-24T14:57:55;47.07;;;16.90;;
179;SDS011;78;48.788;9.010;2023-01-24T15:00:21;44.47;;;16.50;;
179;SDS011;78;48.788;9.010;2023-01-24T15:02:55;48.97;;;15.80;;
179;SDS011;78;48.788;9.010;2023-01-24T15:05:26;42.40;;;15.67;;
179;SDS011;78;48.788;9.010;2023-01-24T15:07:52;44.43;;;17.07;;
179;SDS011;78;48.788;9.010;2023-01-24T15:10:29;44.00;;;18.10;;
179;SDS011;78;48.788;9.010;2023-01-24T15:12:57;49.43;;;18.67;;
179;SDS011;78;48.788;9.010;2023-01-24T15:15:24;46.10;;;17.70;;
179;SDS011;78;48.788;9.010;2023-01-24T15:17:57;49.20;;;18.10;;
179;SDS011;78;48.788;9.010;2023-01-24T15:20:24;50.37;;;18.57;;
179;SDS011;78;48.788;9.010;2023-01-24T15:22:51;45.10;;;17.90;;
179;SDS011;78;48.788;9.010;2023-01-24T15:25:36;45.07;;;17.50;;
179;SDS011;78;48.788;9.010;2023-01-24T15:30:58;51.40;;;18.80;;
179;SDS011;78;48.788;9.010;2023-01-24T15:33:25;45.87;;;18.50;;
179;SDS011;78;48.788;9.010;2023-01-24T15:35:51;44.40;;;18.10;;
179;SDS011;78;48.788;9.010;2023-01-24T15:38:27;48.83;;;19.47;;
179;SDS011;78;48.788;9.010;2023-01-24T15:41:13;50.77;;;18.80;;
179;SDS011;78;48.788;9.010;2023-01-24T15:46:26;50.83;;;18.57;;
179;SDS011;78;48.788;9.010;2023-01-24T15:54:38;50.30;;;19.13;;
179;SDS011;78;48.788;9.010;2023-01-24T15:57:25;49.57;;;20.03;;
179;SDS011;78;48.788;9.010;2023-01-24T15:59:55;52.90;;;20.20;;
179;SDS011;78;48.788;9.010;2023-01-24T16:02:21;55.07;;;20.20;;
179;SDS011;78;48.788;9.010;2023-01-24T16:04:47;48.73;;;19.10;;
179;SDS011;78;48.788;9.010;2023-01-24T16:07:14;65.07;;;22.60;;
179;SDS011;78;48.788;9.010;2023-01-24T16:09:40;53.40;;;21.23;;
179;SDS011;78;48.788;9.010;2023-01-24T16:12:08;47.80;;;19.20;;
179;SDS011;78;48.788;9.010;2023-01-24T16:14:35;56.63;;;21.20;;
179;SDS011;78;48.788;9.010;2023-01-24T16:17:03;53.50;;;20.87;;
179;SDS011;78;48.788;9.010;2023-01-24T16:19:29;58.53;;;23.00;;
179;SDS011;78;48.788;9.010;2023-01-24T16:21:55;61.27;;;24.17;;
179;SDS011;78;48.788;9.010;2023-01-24T16:24:22;56.10;;;22.97;;
179;SDS011;78;48.788;9.010;2023-01-24T16:26:48;57.47;;;21.07;;
179;SDS011;78;48.788;9.010;2023-01-24T16:29:16;52.03;;;21.27;;
179;SDS011;78;48.788;9.010;2023-01-24T16:31:43;52.17;;;21.63;;
179;SDS011;78;48.788;9.010;2023-01-24T16:34:10;54.97;;;21.63;;
179;SDS011;78;48.788;9.010;2023-01-24T16:36:36;57.57;;;23.60;;
179;SDS011;78;48.788;9.010;2023-01-24T16:39:03;73.80;;;28.60;;
179;SDS011;78;48.788;9.010;2023-01-24T16:41:29;72.10;;;26.73;;
179;SDS011;78;48.788;9.010;2023-01-24T16:43:55;60.40;;;24.53;;
179;SDS011;78;48.788;9.010;2023-01-24T16:46:21;58.27;;;21.53;;
179;SDS011;78;48.788;9.010;2023-01-24T16:48:48;62.07;;;24.10;;
179;SDS011;78;48.788;9.010;2023-01-24T16:51:15;62.97;;;24.87;;
179;SDS011;78;48.788;9.010;2023-01-24T16:53:42;56.57;;;21.73;;
179;SDS011;78;48.788;9.010;2023-01-24T16:56:08;64.47;;;23.17;;
179;SDS011;78;48.788;9.010;2023-01-24T16:58:35;53.50;;;20.70;;
179;SDS011;78;48.788;9.010;2023-01-24T17:01:05;63.33;;;22.87;;
179;SDS011;78;48.788;9.010;2023-01-24T17:03:32;58.50;;;23.93;;
179;SDS011;78;48.788;9.010;2023-01-24T17:05:58;60.40;;;23.60;;
179;SDS011;78;48.788;9.010;2023-01-24T17:08:24;64.07;;;24.30;;
179;SDS011;78;48.788;9.010;2023-01-24T17:10:50;67.20;;;24.20;;
179;SDS011;78;48.788;9.010;2023-01-24T17:13:16;63.50;;;25.40;;
179;SDS011;78;48.788;9.010;2023-01-24T17:15:42;70.13;;;26.40;;
179;SDS011;78;48.788;9.010;2023-01-24T17:18:07;66.67;;;24.77;;
179;SDS011;78;48.788;9.010;2023-01-24T17:20:33;62.63;;;24.00;;
179;SDS011;78;48.788;9.010;2023-01-24T17:23:00;68.20;;;25.20;;
179;SDS011;78;48.788;9.010;2023-01-24T17:25:28;73.53;;;27.03;;
179;SDS011;78;48.788;9.010;2023-01-24T17:27:54;62.77;;;24.10;;
179;SDS011;78;48.788;9.010;2023-01-24T17:30:20;57.13;;;22.50;;
179;SDS011;78;48.788;9.010;2023-01-24T17:32:46;71.43;;;25.37;;
179;SDS011;78;48.788;9.010;2023-01-24T17:35:12;59.90;;;23.63;;
179;SDS011;78;48.788;9.010;2023-01-24T17:37:38;61.93;;;24.13;;
179;SDS011;78;48.788;9.010;2023-01-24T17:40:04;66.30;;;24.50;;
179;SDS011;78;48.788;9.010;2023-01-24T17:42:30;76.13;;;26.70;;
179;SDS011;78;48.788;9.010;2023-01-24T17:44:58;64.10;;;24.80;;
179;SDS011;78;48.788;9.010;2023-01-24T17:47:26;62.37;;;24.13;;
179;SDS011;78;48.788;9.010;2023-01-24T17:49:52;66.67;;;25.90;;
179;SDS011;78;48.788;9.010;2023-01-24T17:52:18;61.07;;;23.37;;
179;SDS011;78;48.788;9.010;2023-01-24T17:54:44;65.47;;;25.30;;
179;SDS011;78;48.788;9.010;2023-01-24T17:57:10;62.57;;;24.73;;
179;SDS011;78;48.788;9.010;2023-01-24T17:59:36;63.60;;;24.77;;
179;SDS011;78;48.788;9.010;2023-01-24T18:02:02;64.03;;;25.60;;
179;SDS011;78;48.788;9.010;2023-01-24T18:04:28;63.93;;;23.63;;
179;SDS011;78;48.788;9.010;2023-01-24T18:06:55;57.60;;;23.00;;
179;SDS011;78;48.788;9.010;2023-01-24T18:09:21;64.70;;;25.70;;
179;SDS011;78;48.788;9.010;2023-01-24T18:11:48;60.77;;;24.07;;
179;SDS011;78;48.788;9.010;2023-01-24T18:14:15;58.57;;;23.80;;
179;SDS011;78;48.788;9.010;2023-01-24T18:16:41;59.83;;;23.60;;